sensor_id;sensor_type;location;lat;lon;timestamp;temperature;humidity
21759;DHT22;11041;50.854;20.580;2023-04-01T00:01:24;9.70;99.90
21759;DHT22;11041;50.854;20.580;2023-04-01T00:03:51;9.70;99.90
21759;DHT22;11041;50.854;20.580;2023-04-01T00:06:18;9.70;99.90
21759;DHT22;11041;50.854;20.580;2023-04-01T00:08:44;9.60;99.90
21759;DHT22;11041;50.854;20.580;2023-04-01T00:11:13;9.70;99.90
21759;DHT22;11041;50.854;20.580;2023-04-01T00:13:41;9.70;99.90
21759;DHT22;11041;50.854;20.580;2023-04-01T00:16:08;9.70;99.90
21759;DHT22;11041;50.854;20.580;2023-04-01T00:18:34;9.70;99.90
21759;DHT22;11041;50.854;20.580;2023-04-01T00:21:01;9.60;99.90
21759;DHT22;11041;50.854;20.580;2023-04-01T00:23:53;9.60;99.90
21759;DHT22;11041;50.854;20.580;2023-04-01T00:26:45;9.60;99.90
21759;DHT22;11041;50.854;20.580;2023-04-01T00:29:38;9.60;99.90
21759;DHT22;11041;50.854;20.580;2023-04-01T00:32:33;9.60;99.90
21759;DHT22;11041;50.854;20.580;2023-04-01T00:35:26;9.50;99.90
21759;DHT22;11041;50.854;20.580;2023-04-01T00:38:17;9.50;99.90
21759;DHT22;11041;50.854;20.580;2023-04-01T00:41:12;9.50;99.90
21759;DHT22;11041;50.854;20.580;2023-04-01T00:44:24;9.40;99.90
21759;DHT22;11041;50.854;20.580;2023-04-01T00:47:18;9.40;99.90
21759;DHT22;11041;50.854;20.580;2023-04-01T00:50:12;9.30;99.90
21759;DHT22;11041;50.854;20.580;2023-04-01T00:53:03;9.20;99.90
21759;DHT22;11041;50.854;20.580;2023-04-01T00:56:01;9.20;99.90
21759;DHT22;11041;50.854;20.580;2023-04-01T01:02:43;9.20;99.90
21759;DHT22;11041;50.854;20.580;2023-04-01T01:05:14;9.10;99.90
21759;DHT22;11041;50.854;20.580;2023-04-01T01:11:22;9.00;99.90
21759;DHT22;11041;50.854;20.580;2023-04-01T01:16:51;8.90;99.90
21759;DHT22;11041;50.854;20.580;2023-04-01T01:36:50;8.40;99.90
21759;DHT22;11041;50.854;20.580;2023-04-01T01:39:31;8.30;99.90
21759;DHT22;11041;50.854;20.580;2023-04-01T01:42:04;8.30;99.90
21759;DHT22;11041;50.854;20.580;2023-04-01T01:44:36;8.20;99.90
21759;DHT22;11041;50.854;20.580;2023-04-01T01:47:05;8.10;99.90
21759;DHT22;11041;50.854;20.580;2023-04-01T01:49:33;8.00;99.90
21759;DHT22;11041;50.854;20.580;2023-04-01T01:52:03;8.00;99.90
21759;DHT22;11041;50.854;20.580;2023-04-01T01:54:29;8.10;99.90
21759;DHT22;11041;50.854;20.580;2023-04-01T01:57:06;8.00;99.90
21759;DHT22;11041;50.854;20.580;2023-04-01T01:59:38;7.90;99.90
21759;DHT22;11041;50.854;20.580;2023-04-01T02:02:10;7.90;99.90
21759;DHT22;11041;50.854;20.580;2023-04-01T02:04:41;7.90;99.90
21759;DHT22;11041;50.854;20.580;2023-04-01T02:07:30;7.80;99.90
21759;DHT22;11041;50.854;20.580;2023-04-01T02:09:59;7.70;99.90
21759;DHT22;11041;50.854;20.580;2023-04-01T02:12:27;7.60;99.90
21759;DHT22;11041;50.854;20.580;2023-04-01T02:15:10;7.60;99.90
21759;DHT22;11041;50.854;20.580;2023-04-01T02:17:44;7.50;99.90
21759;DHT22;11041;50.854;20.580;2023-04-01T02:20:21;7.50;99.90
21759;DHT22;11041;50.854;20.580;2023-04-01T02:22:52;7.50;99.90
21759;DHT22;11041;50.854;20.580;2023-04-01T02:25:29;7.40;99.90
21759;DHT22;11041;50.854;20.580;2023-04-01T02:28:00;7.40;99.90
21759;DHT22;11041;50.854;20.580;2023-04-01T02:30:29;7.40;99.90
21759;DHT22;11041;50.854;20.580;2023-04-01T02:33:00;7.40;99.90
21759;DHT22;11041;50.854;20.580;2023-04-01T02:35:28;7.40;99.90
21759;DHT22;11041;50.854;20.580;2023-04-01T02:37:56;7.30;99.90
21759;DHT22;11041;50.854;20.580;2023-04-01T02:40:23;7.30;99.90
21759;DHT22;11041;50.854;20.580;2023-04-01T02:42:49;7.30;99.90
21759;DHT22;11041;50.854;20.580;2023-04-01T02:45:16;7.20;99.90
21759;DHT22;11041;50.854;20.580;2023-04-01T02:47:43;7.20;99.90
21759;DHT22;11041;50.854;20.580;2023-04-01T02:50:10;7.20;99.90
21759;DHT22;11041;50.854;20.580;2023-04-01T02:52:38;7.30;99.90
21759;DHT22;11041;50.854;20.580;2023-04-01T02:55:05;7.30;99.90
21759;DHT22;11041;50.854;20.580;2023-04-01T02:57:32;7.30;99.90
21759;DHT22;11041;50.854;20.580;2023-04-01T02:59:58;7.30;99.90
21759;DHT22;11041;50.854;20.580;2023-04-01T03:02:25;7.30;99.90
21759;DHT22;11041;50.854;20.580;2023-04-01T03:04:51;7.40;99.90
21759;DHT22;11041;50.854;20.580;2023-04-01T03:07:18;7.40;99.90
21759;DHT22;11041;50.854;20.580;2023-04-01T03:09:44;7.50;99.90
21759;DHT22;11041;50.854;20.580;2023-04-01T03:12:11;7.50;99.90
21759;DHT22;11041;50.854;20.580;2023-04-01T03:14:37;7.60;99.90
21759;DHT22;11041;50.854;20.580;2023-04-01T03:17:04;7.60;99.90
21759;DHT22;11041;50.854;20.580;2023-04-01T03:19:31;7.70;99.90
21759;DHT22;11041;50.854;20.580;2023-04-01T03:21:58;7.70;99.90
21759;DHT22;11041;50.854;20.580;2023-04-01T03:24:24;7.70;99.90
21759;DHT22;11041;50.854;20.580;2023-04-01T03:26:51;7.80;99.90
21759;DHT22;11041;50.854;20.580;2023-04-01T03:29:17;7.80;99.90
21759;DHT22;11041;50.854;20.580;2023-04-01T03:31:44;7.80;99.90
21759;DHT22;11041;50.854;20.580;2023-04-01T03:34:11;7.90;99.90
21759;DHT22;11041;50.854;20.580;2023-04-01T03:36:37;7.80;99.90
21759;DHT22;11041;50.854;20.580;2023-04-01T03:39:04;7.80;99.90
21759;DHT22;11041;50.854;20.580;2023-04-01T03:41:31;7.80;99.90
21759;DHT22;11041;50.854;20.580;2023-04-01T03:43:58;7.80;99.90
21759;DHT22;11041;50.854;20.580;2023-04-01T03:46:25;7.80;99.90
21759;DHT22;11041;50.854;20.580;2023-04-01T03:48:51;7.80;99.90
21759;DHT22;11041;50.854;20.580;2023-04-01T03:51:18;7.90;99.90
21759;DHT22;11041;50.854;20.580;2023-04-01T03:53:44;7.90;99.90
21759;DHT22;11041;50.854;20.580;2023-04-01T03:56:11;7.80;99.90
21759;DHT22;11041;50.854;20.580;2023-04-01T03:58:38;7.80;99.90
21759;DHT22;11041;50.854;20.580;2023-04-01T04:01:20;7.80;99.90
21759;DHT22;11041;50.854;20.580;2023-04-01T04:03:49;7.80;99.90
21759;DHT22;11041;50.854;20.580;2023-04-01T04:06:18;7.80;99.90
21759;DHT22;11041;50.854;20.580;2023-04-01T04:08:46;7.80;99.90
21759;DHT22;11041;50.854;20.580;2023-04-01T04:11:12;7.80;99.90
21759;DHT22;11041;50.854;20.580;2023-04-01T04:13:40;7.80;99.90
21759;DHT22;11041;50.854;20.580;2023-04-01T04:16:07;7.80;99.90
21759;DHT22;11041;50.854;20.580;2023-04-01T04:18:36;7.80;99.90
21759;DHT22;11041;50.854;20.580;2023-04-01T04:21:04;7.90;99.90
21759;DHT22;11041;50.854;20.580;2023-04-01T04:23:31;7.90;99.90
21759;DHT22;11041;50.854;20.580;2023-04-01T04:26:02;7.90;99.90
21759;DHT22;11041;50.854;20.580;2023-04-01T04:28:31;7.80;99.90
21759;DHT22;11041;50.854;20.580;2023-04-01T04:30:59;7.90;99.90
21759;DHT22;11041;50.854;20.580;2023-04-01T04:33:27;7.90;99.90
21759;DHT22;11041;50.854;20.580;2023-04-01T04:35:56;7.90;99.90
21759;DHT22;11041;50.854;20.580;2023-04-01T04:38:24;8.00;99.90
21759;DHT22;11041;50.854;20.580;2023-04-01T04:40:51;8.00;99.90
21759;DHT22;11041;50.854;20.580;2023-04-01T04:43:18;8.00;99.90
21759;DHT22;11041;50.854;20.580;2023-04-01T04:45:46;8.00;99.90
21759;DHT22;11041;50.854;20.580;2023-04-01T04:48:15;8.10;99.90
21759;DHT22;11041;50.854;20.580;2023-04-01T04:50:48;8.10;99.90
21759;DHT22;11041;50.854;20.580;2023-04-01T04:53:18;8.10;99.90
21759;DHT22;11041;50.854;20.580;2023-04-01T04:55:49;8.10;99.90
21759;DHT22;11041;50.854;20.580;2023-04-01T04:58:16;8.10;99.90
21759;DHT22;11041;50.854;20.580;2023-04-01T05:00:44;8.10;99.90
21759;DHT22;11041;50.854;20.580;2023-04-01T05:03:12;8.10;99.90
21759;DHT22;11041;50.854;20.580;2023-04-01T05:05:47;8.10;99.90
21759;DHT22;11041;50.854;20.580;2023-04-01T05:08:14;8.10;99.90
21759;DHT22;11041;50.854;20.580;2023-04-01T05:10:41;8.10;99.90
21759;DHT22;11041;50.854;20.580;2023-04-01T05:13:08;8.10;99.90
21759;DHT22;11041;50.854;20.580;2023-04-01T05:15:35;8.10;99.90
21759;DHT22;11041;50.854;20.580;2023-04-01T05:18:01;8.10;99.90
21759;DHT22;11041;50.854;20.580;2023-04-01T05:20:28;8.10;99.90
21759;DHT22;11041;50.854;20.580;2023-04-01T05:22:59;8.10;99.90
21759;DHT22;11041;50.854;20.580;2023-04-01T05:25:26;8.10;99.90
21759;DHT22;11041;50.854;20.580;2023-04-01T05:27:53;8.20;99.90
21759;DHT22;11041;50.854;20.580;2023-04-01T05:30:21;8.20;99.90
21759;DHT22;11041;50.854;20.580;2023-04-01T05:32:47;8.20;99.90
21759;DHT22;11041;50.854;20.580;2023-04-01T05:35:14;8.20;99.90
21759;DHT22;11041;50.854;20.580;2023-04-01T05:37:40;8.30;99.90
21759;DHT22;11041;50.854;20.580;2023-04-01T05:40:10;8.40;99.90
21759;DHT22;11041;50.854;20.580;2023-04-01T05:42:37;8.50;99.90
21759;DHT22;11041;50.854;20.580;2023-04-01T05:45:04;8.60;99.90
21759;DHT22;11041;50.854;20.580;2023-04-01T05:47:30;8.70;99.90
21759;DHT22;11041;50.854;20.580;2023-04-01T05:49:57;8.70;99.90
21759;DHT22;11041;50.854;20.580;2023-04-01T05:52:24;8.80;99.90
21759;DHT22;11041;50.854;20.580;2023-04-01T05:54:51;8.80;99.90
21759;DHT22;11041;50.854;20.580;2023-04-01T05:57:17;8.90;99.90
21759;DHT22;11041;50.854;20.580;2023-04-01T05:59:44;8.90;99.90
21759;DHT22;11041;50.854;20.580;2023-04-01T06:02:18;9.00;99.90
21759;DHT22;11041;50.854;20.580;2023-04-01T06:04:45;9.10;99.90
21759;DHT22;11041;50.854;20.580;2023-04-01T06:07:14;9.20;99.90
21759;DHT22;11041;50.854;20.580;2023-04-01T06:09:45;9.20;99.90
21759;DHT22;11041;50.854;20.580;2023-04-01T06:18:38;9.30;99.90
21759;DHT22;11041;50.854;20.580;2023-04-01T06:29:58;9.30;99.90
21759;DHT22;11041;50.854;20.580;2023-04-01T06:42:02;9.50;99.90
21759;DHT22;11041;50.854;20.580;2023-04-01T06:51:25;9.70;99.90
21759;DHT22;11041;50.854;20.580;2023-04-01T06:56:54;9.70;99.90
21759;DHT22;11041;50.854;20.580;2023-04-01T06:59:31;9.80;99.90
21759;DHT22;11041;50.854;20.580;2023-04-01T07:02:18;9.90;99.90
21759;DHT22;11041;50.854;20.580;2023-04-01T07:05:05;9.90;99.90
21759;DHT22;11041;50.854;20.580;2023-04-01T07:07:43;9.90;99.90
21759;DHT22;11041;50.854;20.580;2023-04-01T07:14:04;10.00;99.90
21759;DHT22;11041;50.854;20.580;2023-04-01T07:19:56;10.20;99.90
21759;DHT22;11041;50.854;20.580;2023-04-01T07:22:34;10.20;99.90
21759;DHT22;11041;50.854;20.580;2023-04-01T07:25:26;10.20;99.90
21759;DHT22;11041;50.854;20.580;2023-04-01T07:28:15;10.30;99.90
21759;DHT22;11041;50.854;20.580;2023-04-01T07:33:57;10.30;99.90
21759;DHT22;11041;50.854;20.580;2023-04-01T07:39:53;10.30;99.90
21759;DHT22;11041;50.854;20.580;2023-04-01T07:42:54;10.30;99.90
21759;DHT22;11041;50.854;20.580;2023-04-01T07:54:53;10.30;99.90
21759;DHT22;11041;50.854;20.580;2023-04-01T08:06:45;10.60;99.90
21759;DHT22;11041;50.854;20.580;2023-04-01T08:09:19;10.60;99.90
21759;DHT22;11041;50.854;20.580;2023-04-01T08:18:47;10.80;99.90
21759;DHT22;11041;50.854;20.580;2023-04-01T08:21:27;10.80;99.90
21759;DHT22;11041;50.854;20.580;2023-04-01T08:23:58;10.70;99.90
21759;DHT22;11041;50.854;20.580;2023-04-01T08:29:40;10.80;99.90
21759;DHT22;11041;50.854;20.580;2023-04-01T08:32:22;10.80;99.90
21759;DHT22;11041;50.854;20.580;2023-04-01T08:38:33;10.90;99.90
21759;DHT22;11041;50.854;20.580;2023-04-01T08:52:18;11.30;99.90
21759;DHT22;11041;50.854;20.580;2023-04-01T09:16:38;11.50;99.90
21759;DHT22;11041;50.854;20.580;2023-04-01T09:19:15;11.60;99.90
21759;DHT22;11041;50.854;20.580;2023-04-01T09:27:37;11.60;99.90
21759;DHT22;11041;50.854;20.580;2023-04-01T09:44:53;10.80;99.90
21759;DHT22;11041;50.854;20.580;2023-04-01T09:47:38;10.90;99.90
21759;DHT22;11041;50.854;20.580;2023-04-01T09:50:38;10.90;99.90
21759;DHT22;11041;50.854;20.580;2023-04-01T09:56:39;10.80;99.90
21759;DHT22;11041;50.854;20.580;2023-04-01T10:27:21;11.40;99.90
21759;DHT22;11041;50.854;20.580;2023-04-01T10:33:19;11.50;99.90
21759;DHT22;11041;50.854;20.580;2023-04-01T10:39:34;11.60;99.90
21759;DHT22;11041;50.854;20.580;2023-04-01T11:15:15;12.90;99.90
21759;DHT22;11041;50.854;20.580;2023-04-01T11:27:48;12.60;99.90
21759;DHT22;11041;50.854;20.580;2023-04-01T11:46:27;12.20;99.90
21759;DHT22;11041;50.854;20.580;2023-04-01T11:52:39;12.10;99.90
21759;DHT22;11041;50.854;20.580;2023-04-01T11:55:31;12.20;99.90
21759;DHT22;11041;50.854;20.580;2023-04-01T11:58:37;12.30;99.90
21759;DHT22;11041;50.854;20.580;2023-04-01T12:01:33;12.40;99.90
21759;DHT22;11041;50.854;20.580;2023-04-01T12:04:23;12.30;99.90
21759;DHT22;11041;50.854;20.580;2023-04-01T12:10:33;12.30;99.90
21759;DHT22;11041;50.854;20.580;2023-04-01T12:13:41;12.20;99.90
21759;DHT22;11041;50.854;20.580;2023-04-01T12:17:08;12.20;99.90
21759;DHT22;11041;50.854;20.580;2023-04-01T12:25:55;12.50;99.90
21759;DHT22;11041;50.854;20.580;2023-04-01T12:41:08;13.80;99.90
21759;DHT22;11041;50.854;20.580;2023-04-01T12:46:55;14.20;99.90
21759;DHT22;11041;50.854;20.580;2023-04-01T12:49:34;14.00;99.90
21759;DHT22;11041;50.854;20.580;2023-04-01T12:52:36;14.00;99.90
21759;DHT22;11041;50.854;20.580;2023-04-01T12:55:42;13.90;99.90
21759;DHT22;11041;50.854;20.580;2023-04-01T12:58:38;14.20;99.90
21759;DHT22;11041;50.854;20.580;2023-04-01T13:01:30;14.50;99.90
21759;DHT22;11041;50.854;20.580;2023-04-01T13:13:06;14.20;99.90
21759;DHT22;11041;50.854;20.580;2023-04-01T13:16:22;14.30;99.90
21759;DHT22;11041;50.854;20.580;2023-04-01T13:19:22;14.30;99.90
21759;DHT22;11041;50.854;20.580;2023-04-01T13:28:20;13.60;99.90
21759;DHT22;11041;50.854;20.580;2023-04-01T13:31:20;13.40;99.90
21759;DHT22;11041;50.854;20.580;2023-04-01T13:45:22;12.80;99.90
21759;DHT22;11041;50.854;20.580;2023-04-01T13:51:18;12.60;99.90
21759;DHT22;11041;50.854;20.580;2023-04-01T13:54:21;12.40;99.90
21759;DHT22;11041;50.854;20.580;2023-04-01T13:57:28;12.40;99.90
21759;DHT22;11041;50.854;20.580;2023-04-01T14:10:23;12.10;99.90
21759;DHT22;11041;50.854;20.580;2023-04-01T14:13:13;12.60;99.90
21759;DHT22;11041;50.854;20.580;2023-04-01T14:29:21;13.90;99.90
21759;DHT22;11041;50.854;20.580;2023-04-01T14:32:33;13.90;99.90
21759;DHT22;11041;50.854;20.580;2023-04-01T14:35:39;13.70;99.90
21759;DHT22;11041;50.854;20.580;2023-04-01T14:50:29;13.40;99.90
21759;DHT22;11041;50.854;20.580;2023-04-01T14:55:57;12.70;99.90
21759;DHT22;11041;50.854;20.580;2023-04-01T14:58:46;12.60;99.90
21759;DHT22;11041;50.854;20.580;2023-04-01T15:16:28;11.20;99.90
21759;DHT22;11041;50.854;20.580;2023-04-01T15:19:50;11.10;99.90
21759;DHT22;11041;50.854;20.580;2023-04-01T15:25:58;10.90;99.90
21759;DHT22;11041;50.854;20.580;2023-04-01T15:40:53;11.30;99.90
21759;DHT22;11041;50.854;20.580;2023-04-01T15:43:48;11.30;99.90
21759;DHT22;11041;50.854;20.580;2023-04-01T16:12:57;10.70;99.90
21759;DHT22;11041;50.854;20.580;2023-04-01T16:24:51;10.30;99.90
21759;DHT22;11041;50.854;20.580;2023-04-01T16:28:04;10.30;99.90
21759;DHT22;11041;50.854;20.580;2023-04-01T16:31:04;10.40;99.90
21759;DHT22;11041;50.854;20.580;2023-04-01T16:34:10;10.30;99.90
21759;DHT22;11041;50.854;20.580;2023-04-01T16:36:55;10.30;99.90
21759;DHT22;11041;50.854;20.580;2023-04-01T16:39:54;10.20;99.90
21759;DHT22;11041;50.854;20.580;2023-04-01T16:42:43;10.20;99.90
21759;DHT22;11041;50.854;20.580;2023-04-01T16:45:42;10.20;99.90
21759;DHT22;11041;50.854;20.580;2023-04-01T16:48:28;10.20;99.90
21759;DHT22;11041;50.854;20.580;2023-04-01T16:51:20;10.10;99.90
21759;DHT22;11041;50.854;20.580;2023-04-01T16:54:26;10.10;99.90
21759;DHT22;11041;50.854;20.580;2023-04-01T16:57:19;10.10;99.90
21759;DHT22;11041;50.854;20.580;2023-04-01T17:03:22;10.10;99.90
21759;DHT22;11041;50.854;20.580;2023-04-01T17:06:25;10.00;99.90
21759;DHT22;11041;50.854;20.580;2023-04-01T17:09:17;10.00;99.90
21759;DHT22;11041;50.854;20.580;2023-04-01T17:21:46;10.00;99.90
21759;DHT22;11041;50.854;20.580;2023-04-01T17:31:51;9.90;99.90
21759;DHT22;11041;50.854;20.580;2023-04-01T17:37:22;9.90;99.90
21759;DHT22;11041;50.854;20.580;2023-04-01T17:49:28;9.90;99.90
21759;DHT22;11041;50.854;20.580;2023-04-01T18:01:26;9.80;99.90
21759;DHT22;11041;50.854;20.580;2023-04-01T18:04:12;9.70;99.90
21759;DHT22;11041;50.854;20.580;2023-04-01T18:10:23;9.60;99.90
21759;DHT22;11041;50.854;20.580;2023-04-01T18:16:39;9.70;99.90
21759;DHT22;11041;50.854;20.580;2023-04-01T18:28:38;9.70;99.90
21759;DHT22;11041;50.854;20.580;2023-04-01T18:31:32;9.70;99.90
21759;DHT22;11041;50.854;20.580;2023-04-01T18:34:12;9.70;99.90
21759;DHT22;11041;50.854;20.580;2023-04-01T18:40:51;9.70;99.90
21759;DHT22;11041;50.854;20.580;2023-04-01T18:50:14;9.60;99.90
21759;DHT22;11041;50.854;20.580;2023-04-01T18:52:54;9.60;99.90
21759;DHT22;11041;50.854;20.580;2023-04-01T18:55:51;9.50;99.90
21759;DHT22;11041;50.854;20.580;2023-04-01T19:01:05;9.50;99.90
21759;DHT22;11041;50.854;20.580;2023-04-01T19:16:19;9.50;99.90
21759;DHT22;11041;50.854;20.580;2023-04-01T19:18:50;9.60;99.90
21759;DHT22;11041;50.854;20.580;2023-04-01T19:46:28;10.80;99.90
21759;DHT22;11041;50.854;20.580;2023-04-01T19:58:18;9.30;99.90
21759;DHT22;11041;50.854;20.580;2023-04-01T20:00:53;9.30;99.90
21759;DHT22;11041;50.854;20.580;2023-04-01T20:03:51;9.20;99.90
21759;DHT22;11041;50.854;20.580;2023-04-01T20:06:51;9.20;99.90
21759;DHT22;11041;50.854;20.580;2023-04-01T20:15:47;9.30;99.90
21759;DHT22;11041;50.854;20.580;2023-04-01T20:18:34;9.30;99.90
21759;DHT22;11041;50.854;20.580;2023-04-01T20:21:24;9.40;99.90
21759;DHT22;11041;50.854;20.580;2023-04-01T20:23:58;9.40;99.90
21759;DHT22;11041;50.854;20.580;2023-04-01T20:26:35;9.30;99.90
21759;DHT22;11041;50.854;20.580;2023-04-01T20:29:24;9.30;99.90
21759;DHT22;11041;50.854;20.580;2023-04-01T20:34:54;9.30;99.90
21759;DHT22;11041;50.854;20.580;2023-04-01T20:38:06;9.20;99.90
21759;DHT22;11041;50.854;20.580;2023-04-01T20:41:27;9.20;99.90
21759;DHT22;11041;50.854;20.580;2023-04-01T20:44:14;9.20;99.90
21759;DHT22;11041;50.854;20.580;2023-04-01T20:50:41;9.10;99.90
21759;DHT22;11041;50.854;20.580;2023-04-01T20:53:58;9.10;99.90
21759;DHT22;11041;50.854;20.580;2023-04-01T21:26:52;8.90;99.90
21759;DHT22;11041;50.854;20.580;2023-04-01T21:38:30;8.80;99.90
21759;DHT22;11041;50.854;20.580;2023-04-01T21:41:26;8.90;99.90
21759;DHT22;11041;50.854;20.580;2023-04-01T21:44:13;8.80;99.90
21759;DHT22;11041;50.854;20.580;2023-04-01T21:50:07;8.90;99.90
21759;DHT22;11041;50.854;20.580;2023-04-01T22:11:11;8.60;99.90
21759;DHT22;11041;50.854;20.580;2023-04-01T22:13:54;8.60;99.90
21759;DHT22;11041;50.854;20.580;2023-04-01T22:17:09;8.50;99.90
21759;DHT22;11041;50.854;20.580;2023-04-01T22:25:48;8.50;99.90
21759;DHT22;11041;50.854;20.580;2023-04-01T22:28:29;8.50;99.90
21759;DHT22;11041;50.854;20.580;2023-04-01T22:31:03;8.40;99.90
21759;DHT22;11041;50.854;20.580;2023-04-01T22:33:55;8.40;99.90
21759;DHT22;11041;50.854;20.580;2023-04-01T22:36:53;8.40;99.90
21759;DHT22;11041;50.854;20.580;2023-04-01T22:39:57;8.40;99.90
21759;DHT22;11041;50.854;20.580;2023-04-01T22:42:59;8.40;99.90
21759;DHT22;11041;50.854;20.580;2023-04-01T22:49:31;8.40;99.90
21759;DHT22;11041;50.854;20.580;2023-04-01T22:55:08;8.30;99.90
21759;DHT22;11041;50.854;20.580;2023-04-01T22:58:01;8.30;99.90
21759;DHT22;11041;50.854;20.580;2023-04-01T23:00:45;8.30;99.90
21759;DHT22;11041;50.854;20.580;2023-04-01T23:03:34;8.40;99.90
21759;DHT22;11041;50.854;20.580;2023-04-01T23:06:08;8.40;99.90
21759;DHT22;11041;50.854;20.580;2023-04-01T23:08:54;8.40;99.90
21759;DHT22;11041;50.854;20.580;2023-04-01T23:11:36;8.40;99.90
21759;DHT22;11041;50.854;20.580;2023-04-01T23:29:02;8.20;99.90
21759;DHT22;11041;50.854;20.580;2023-04-01T23:31:42;8.20;99.90
21759;DHT22;11041;50.854;20.580;2023-04-01T23:34:34;8.20;99.90
21759;DHT22;11041;50.854;20.580;2023-04-01T23:37:10;8.20;99.90
21759;DHT22;11041;50.854;20.580;2023-04-01T23:39:39;8.20;99.90
21759;DHT22;11041;50.854;20.580;2023-04-01T23:44:55;8.20;99.90
21759;DHT22;11041;50.854;20.580;2023-04-01T23:47:43;8.20;99.90
21759;DHT22;11041;50.854;20.580;2023-04-01T23:50:19;8.10;99.90
21759;DHT22;11041;50.854;20.580;2023-04-01T23:55:32;8.10;99.90
